createdAt,value
2023-01-27T00:00:14.467Z,3.29
2023-01-27T00:02:42.720Z,3.29
2023-01-27T00:05:11.093Z,3.32
2023-01-27T00:07:38.159Z,3.32
2023-01-27T00:10:05.535Z,3.29
2023-01-27T00:12:50.870Z,3.27
2023-01-27T00:15:17.357Z,3.25
2023-01-27T00:17:43.774Z,3.22
2023-01-27T00:20:11.196Z,3.20
2023-01-27T00:22:56.446Z,3.22
2023-01-27T00:25:22.911Z,3.22
2023-01-27T00:27:49.413Z,3.25
2023-01-27T00:30:16.015Z,3.27
2023-01-27T00:33:00.882Z,3.27
2023-01-27T00:35:27.269Z,3.30
2023-01-27T00:37:53.714Z,3.31
2023-01-27T00:40:20.229Z,3.34
2023-01-27T00:42:46.638Z,3.34
2023-01-27T00:45:31.245Z,3.35
2023-01-27T00:47:57.672Z,3.37
2023-01-27T00:50:24.240Z,3.37
2023-01-27T00:52:52.126Z,3.37
2023-01-27T00:55:18.617Z,3.38
2023-01-27T00:57:45.085Z,3.36
2023-01-27T01:00:12.227Z,3.34
2023-01-27T01:02:38.802Z,3.34
2023-01-27T01:05:05.606Z,3.35
2023-01-27T01:07:31.990Z,3.37
2023-01-27T01:09:58.357Z,3.38
2023-01-27T01:12:24.806Z,3.39
2023-01-27T01:14:51.162Z,3.42
2023-01-27T01:17:17.567Z,3.44
2023-01-27T01:19:44.008Z,3.46
2023-01-27T01:22:10.439Z,3.49
2023-01-27T01:24:36.918Z,3.52
2023-01-27T01:27:03.393Z,3.55
2023-01-27T01:29:29.891Z,3.57
2023-01-27T01:31:56.275Z,3.59
2023-01-27T01:34:22.705Z,3.59
2023-01-27T01:36:49.102Z,3.60
2023-01-27T01:39:15.478Z,3.61
2023-01-27T01:41:42.743Z,3.61
2023-01-27T01:44:27.535Z,3.63
2023-01-27T01:46:54.329Z,3.63
2023-01-27T01:49:26.837Z,3.67
2023-01-27T01:52:01.929Z,3.69
2023-01-27T01:54:39.768Z,3.71
2023-01-27T01:57:23.287Z,3.72
2023-01-27T02:00:01.197Z,3.74
2023-01-27T02:02:29.108Z,3.75
2023-01-27T02:05:32.170Z,3.77
2023-01-27T02:08:24.521Z,3.76
2023-01-27T02:10:54.335Z,3.78
2023-01-27T02:13:21.652Z,3.77
2023-01-27T02:15:48.628Z,3.77
2023-01-27T02:18:15.285Z,3.77
2023-01-27T02:20:47.060Z,3.78
2023-01-27T02:23:48.007Z,3.76
2023-01-27T02:26:20.549Z,3.74
2023-01-27T02:28:56.155Z,3.74
2023-01-27T02:31:23.206Z,3.73
2023-01-27T02:33:52.563Z,3.71
2023-01-27T02:36:19.291Z,3.70
2023-01-27T02:38:48.128Z,3.70
2023-01-27T02:41:28.208Z,3.69
2023-01-27T02:43:55.878Z,3.68
2023-01-27T02:46:22.551Z,3.67
2023-01-27T02:48:49.284Z,3.68
2023-01-27T02:51:15.732Z,3.67
2023-01-27T02:53:42.177Z,3.66
2023-01-27T02:56:08.803Z,3.65
2023-01-27T02:58:35.261Z,3.65
2023-01-27T03:01:01.653Z,3.65
2023-01-27T03:03:28.059Z,3.66
2023-01-27T03:05:54.486Z,3.68
2023-01-27T03:08:20.872Z,3.71
2023-01-27T03:10:54.689Z,3.71
2023-01-27T03:13:23.142Z,3.70
2023-01-27T03:16:08.734Z,3.67
2023-01-27T03:18:36.332Z,3.66
2023-01-27T03:21:05.656Z,3.66
2023-01-27T03:23:34.774Z,3.65
2023-01-27T03:26:05.508Z,3.66
2023-01-27T03:28:31.966Z,3.61
2023-01-27T03:31:05.844Z,3.59
2023-01-27T03:33:32.834Z,3.60
2023-01-27T03:36:20.720Z,3.58
2023-01-27T03:39:06.140Z,3.55
2023-01-27T03:41:50.869Z,3.54
2023-01-27T03:44:35.716Z,3.52
2023-01-27T03:47:02.250Z,3.50
2023-01-27T03:49:28.661Z,3.48
2023-01-27T03:51:55.003Z,3.47
2023-01-27T03:54:21.396Z,3.47
2023-01-27T03:56:48.129Z,3.42
2023-01-27T03:59:14.928Z,3.41
2023-01-27T04:01:43.748Z,3.37
2023-01-27T04:04:30.106Z,3.36
2023-01-27T04:06:59.012Z,3.37
2023-01-27T04:09:28.223Z,3.36
2023-01-27T04:11:57.940Z,3.33
2023-01-27T04:14:28.427Z,3.31
2023-01-27T04:17:02.126Z,3.29
2023-01-27T04:19:28.966Z,3.25
2023-01-27T04:21:57.897Z,3.23
2023-01-27T04:24:24.885Z,3.21
2023-01-27T04:27:06.856Z,3.21
2023-01-27T04:29:36.106Z,3.19
2023-01-27T04:32:04.435Z,3.20
2023-01-27T04:34:30.942Z,3.19
2023-01-27T04:36:58.701Z,3.17
2023-01-27T04:39:25.793Z,3.16
2023-01-27T04:41:52.502Z,3.19
2023-01-27T04:44:22.099Z,3.21
2023-01-27T04:46:49.196Z,3.20
2023-01-27T04:49:15.796Z,3.23
2023-01-27T04:51:42.257Z,3.23
2023-01-27T04:54:08.748Z,3.26
2023-01-27T04:56:41.061Z,3.28
2023-01-27T04:59:11.252Z,3.30
2023-01-27T05:01:37.746Z,3.28
2023-01-27T05:04:04.443Z,3.28
2023-01-27T05:06:30.961Z,3.26
2023-01-27T05:08:57.400Z,3.26
2023-01-27T05:11:23.844Z,3.28
2023-01-27T05:13:50.281Z,3.27
2023-01-27T05:16:23.492Z,3.26
2023-01-27T05:18:51.954Z,3.29
2023-01-27T05:21:21.757Z,3.28
2023-01-27T05:23:49.078Z,3.30
2023-01-27T05:26:18.267Z,3.29
2023-01-27T05:28:46.482Z,3.29
2023-01-27T05:31:24.922Z,3.28
2023-01-27T05:33:53.296Z,3.30
2023-01-27T05:36:22.055Z,3.29
2023-01-27T05:38:48.808Z,3.32
2023-01-27T05:41:17.264Z,3.34
2023-01-27T05:43:45.580Z,3.32
2023-01-27T05:46:13.353Z,3.32
2023-01-27T05:48:42.221Z,3.31
2023-01-27T05:51:09.197Z,3.33
2023-01-27T05:53:36.385Z,3.32
2023-01-27T05:56:03.677Z,3.33
2023-01-27T05:58:31.161Z,3.35
2023-01-27T06:01:07.200Z,3.37
2023-01-27T06:03:33.621Z,3.37
2023-01-27T06:06:00.099Z,3.36
2023-01-27T06:08:27.170Z,3.37
2023-01-27T06:10:54.479Z,3.38
2023-01-27T06:13:22.996Z,3.37
2023-01-27T06:15:49.904Z,3.36
2023-01-27T06:18:18.087Z,3.40
2023-01-27T06:20:45.428Z,3.42
2023-01-27T06:23:13.783Z,3.44
2023-01-27T06:25:42.949Z,3.44
2023-01-27T06:28:12.606Z,3.43
2023-01-27T06:30:41.970Z,3.39
2023-01-27T06:33:08.848Z,3.40
2023-01-27T06:35:37.245Z,3.41
2023-01-27T06:38:04.929Z,3.43
2023-01-27T06:40:33.027Z,3.48
2023-01-27T06:42:59.590Z,3.51
2023-01-27T06:45:26.392Z,3.54
2023-01-27T06:47:58.151Z,3.55
2023-01-27T06:50:26.927Z,3.58
2023-01-27T06:52:58.750Z,3.61
2023-01-27T06:55:26.444Z,3.64
2023-01-27T06:57:52.829Z,3.66
2023-01-27T07:00:19.847Z,3.69
2023-01-27T07:02:46.308Z,3.71
2023-01-27T07:05:13.406Z,3.70
2023-01-27T07:07:39.839Z,3.70
2023-01-27T07:10:07.765Z,3.69
2023-01-27T07:12:37.720Z,3.69
2023-01-27T07:15:09.417Z,3.68
2023-01-27T07:17:36.336Z,3.66
2023-01-27T07:20:04.261Z,3.67
2023-01-27T07:22:30.660Z,3.66
2023-01-27T07:24:57.078Z,3.65
2023-01-27T07:27:24.882Z,3.66
2023-01-27T07:29:52.100Z,3.67
2023-01-27T07:32:18.591Z,3.69
2023-01-27T07:34:45.090Z,3.72
2023-01-27T07:37:11.729Z,3.71
2023-01-27T07:39:38.337Z,3.69
2023-01-27T07:42:06.118Z,3.70
2023-01-27T07:44:32.642Z,3.71
2023-01-27T07:46:59.613Z,3.73
2023-01-27T07:49:27.552Z,3.76
2023-01-27T07:51:54.513Z,3.79
2023-01-27T07:54:21.006Z,3.79
2023-01-27T07:56:47.499Z,3.83
2023-01-27T07:59:14.164Z,3.85
2023-01-27T08:01:41.836Z,3.87
2023-01-27T08:04:08.468Z,3.90
2023-01-27T08:06:34.984Z,3.89
2023-01-27T08:09:01.461Z,3.91
2023-01-27T08:11:27.932Z,3.93
2023-01-27T08:13:54.349Z,3.95
2023-01-27T08:16:20.817Z,3.99
2023-01-27T08:18:47.208Z,3.99
2023-01-27T08:21:13.700Z,4.04
2023-01-27T08:23:40.162Z,4.06
2023-01-27T08:26:07.402Z,4.10
2023-01-27T08:28:35.733Z,4.15
2023-01-27T08:31:10.794Z,4.19
2023-01-27T08:33:38.383Z,4.24
2023-01-27T08:36:11.271Z,4.26
2023-01-27T08:38:38.326Z,4.29
2023-01-27T08:41:19.615Z,4.31
2023-01-27T08:43:46.649Z,4.32
2023-01-27T08:46:13.842Z,4.38
2023-01-27T08:48:40.859Z,4.40
2023-01-27T08:51:08.454Z,4.46
2023-01-27T08:53:36.915Z,4.46
2023-01-27T08:56:06.410Z,4.51
2023-01-27T08:58:36.045Z,4.49
2023-01-27T09:01:04.748Z,4.50
2023-01-27T09:03:32.334Z,4.52
2023-01-27T09:05:59.256Z,4.51
2023-01-27T09:08:26.312Z,4.52
2023-01-27T09:10:52.914Z,4.53
2023-01-27T09:13:22.178Z,4.53
2023-01-27T09:15:51.568Z,4.57
2023-01-27T09:18:18.506Z,4.59
2023-01-27T09:20:45.098Z,4.58
2023-01-27T09:23:11.771Z,4.59
2023-01-27T09:25:38.226Z,4.61
2023-01-27T09:28:04.713Z,4.61
2023-01-27T09:30:31.171Z,4.65
2023-01-27T09:32:59.255Z,4.64
2023-01-27T09:35:30.299Z,4.67
2023-01-27T09:37:58.680Z,4.67
2023-01-27T09:40:37.316Z,4.66
2023-01-27T09:43:22.593Z,4.64
2023-01-27T09:46:31.913Z,4.66
2023-01-27T09:49:11.073Z,4.66
2023-01-27T09:52:12.507Z,4.65
2023-01-27T09:55:06.715Z,4.67
2023-01-27T09:58:01.780Z,4.65
2023-01-27T10:00:46.162Z,4.66
2023-01-27T10:03:31.119Z,4.65
2023-01-27T10:06:07.304Z,4.71
2023-01-27T10:09:06.196Z,4.75
2023-01-27T10:12:15.346Z,4.74
2023-01-27T10:14:56.313Z,4.80
2023-01-27T10:17:51.364Z,4.83
2023-01-27T10:20:39.754Z,4.85
2023-01-27T10:23:29.774Z,4.85
2023-01-27T10:26:36.511Z,4.86
2023-01-27T10:29:13.928Z,4.91
2023-01-27T10:31:48.173Z,4.98
2023-01-27T10:34:29.138Z,5.03
2023-01-27T10:37:08.629Z,5.05
2023-01-27T10:39:59.564Z,5.10
2023-01-27T10:42:53.327Z,5.13
2023-01-27T10:45:47.668Z,5.17
2023-01-27T10:48:14.027Z,5.22
2023-01-27T10:50:47.454Z,5.24
2023-01-27T10:53:47.564Z,5.22
2023-01-27T10:56:34.489Z,5.24
2023-01-27T10:59:14.968Z,5.28
2023-01-27T11:01:49.179Z,5.33
2023-01-27T11:04:40.879Z,5.38
2023-01-27T11:07:07.714Z,5.48
2023-01-27T11:10:02.230Z,5.55
2023-01-27T11:12:33.567Z,5.65
2023-01-27T11:15:01.950Z,5.73
2023-01-27T11:17:36.999Z,5.81
2023-01-27T11:20:23.409Z,5.88
2023-01-27T11:23:22.280Z,5.98
2023-01-27T11:26:07.965Z,6.10
2023-01-27T11:29:08.298Z,6.25
2023-01-27T11:31:48.498Z,6.35
2023-01-27T11:34:26.241Z,6.44
2023-01-27T11:36:52.884Z,6.52
2023-01-27T11:39:19.417Z,6.59
2023-01-27T11:41:52.149Z,6.65
2023-01-27T11:44:22.128Z,6.67
2023-01-27T11:46:50.026Z,6.70
2023-01-27T11:49:22.498Z,6.70
2023-01-27T11:51:49.318Z,6.73
2023-01-27T11:54:21.784Z,6.77
2023-01-27T11:56:49.725Z,6.78
2023-01-27T11:59:39.833Z,6.79
2023-01-27T12:02:09.209Z,6.80
2023-01-27T12:04:38.792Z,6.82
2023-01-27T12:07:14.283Z,6.87
2023-01-27T12:09:42.082Z,6.99
2023-01-27T12:12:14.709Z,7.09
2023-01-27T12:15:04.671Z,7.15
2023-01-27T12:17:40.606Z,7.20
2023-01-27T12:20:22.092Z,7.19
2023-01-27T12:22:53.416Z,7.24
2023-01-27T12:25:25.140Z,7.25
2023-01-27T12:28:01.285Z,7.26
2023-01-27T12:30:31.589Z,7.28
2023-01-27T12:32:59.485Z,7.29
2023-01-27T12:35:36.879Z,7.24
2023-01-27T12:38:12.707Z,7.23
2023-01-27T12:40:43.607Z,7.20
2023-01-27T12:43:18.838Z,7.17
2023-01-27T12:46:01.967Z,7.16
2023-01-27T12:48:31.569Z,7.15
2023-01-27T12:51:12.519Z,7.11
2023-01-27T12:53:39.834Z,7.06
2023-01-27T12:56:22.546Z,7.04
2023-01-27T12:58:54.650Z,7.02
2023-01-27T13:01:26.850Z,7.00
2023-01-27T13:04:16.875Z,6.98
2023-01-27T13:07:15.140Z,6.96
2023-01-27T13:09:53.351Z,6.97
2023-01-27T13:12:23.383Z,7.01
2023-01-27T13:14:52.979Z,7.02
2023-01-27T13:17:48.380Z,7.04
2023-01-27T13:20:18.962Z,7.08
2023-01-27T13:22:50.005Z,7.09
2023-01-27T13:25:20.397Z,7.11
2023-01-27T13:27:50.192Z,7.12
2023-01-27T13:30:28.073Z,7.18
2023-01-27T13:33:03.940Z,7.25
2023-01-27T13:35:35.289Z,7.33
2023-01-27T13:38:15.511Z,7.44
2023-01-27T13:40:45.516Z,7.51
2023-01-27T13:43:24.151Z,7.57
2023-01-27T13:46:14.414Z,7.62
2023-01-27T13:48:48.523Z,7.66
2023-01-27T13:51:18.069Z,7.69
2023-01-27T13:53:47.560Z,7.70
2023-01-27T13:56:20.135Z,7.72
2023-01-27T13:59:08.539Z,7.70
2023-01-27T14:01:49.297Z,7.72
2023-01-27T14:04:34.423Z,7.65
2023-01-27T14:07:26.439Z,7.61
2023-01-27T14:10:01.163Z,7.56
2023-01-27T14:12:50.686Z,7.51
2023-01-27T14:15:31.930Z,7.47
2023-01-27T14:18:21.848Z,7.39
2023-01-27T14:21:17.027Z,7.31
2023-01-27T14:24:16.144Z,7.25
2023-01-27T14:26:56.770Z,7.23
2023-01-27T14:29:32.785Z,7.18
2023-01-27T14:32:17.713Z,7.14
2023-01-27T14:35:14.455Z,7.10
2023-01-27T14:38:04.360Z,7.05
2023-01-27T14:40:38.370Z,7.01
2023-01-27T14:43:19.780Z,6.97
2023-01-27T14:46:21.285Z,6.93
2023-01-27T14:49:23.883Z,6.90
2023-01-27T14:52:02.582Z,6.90
2023-01-27T14:54:55.632Z,6.89
2023-01-27T14:57:40.535Z,6.89
2023-01-27T15:00:21.513Z,6.87
2023-01-27T15:03:34.827Z,6.84
2023-01-27T15:06:30.077Z,6.84
2023-01-27T15:09:23.183Z,6.83
2023-01-27T15:12:07.725Z,6.83
2023-01-27T15:15:03.749Z,6.82
2023-01-27T15:17:55.577Z,6.79
2023-01-27T15:20:37.790Z,6.77
2023-01-27T15:23:10.204Z,6.77
2023-01-27T15:25:46.603Z,6.75
2023-01-27T15:28:15.669Z,6.73
2023-01-27T15:31:08.563Z,6.71
2023-01-27T15:33:45.143Z,6.68
2023-01-27T15:36:31.593Z,6.65
2023-01-27T15:39:16.325Z,6.64
2023-01-27T15:41:53.500Z,6.59
2023-01-27T15:44:25.675Z,6.56
2023-01-27T15:46:54.557Z,6.51
2023-01-27T15:49:24.375Z,6.47
2023-01-27T15:51:54.289Z,6.43
2023-01-27T15:54:33.628Z,6.40
2023-01-27T15:57:04.668Z,6.38
2023-01-27T15:59:57.175Z,6.35
2023-01-27T16:02:28.340Z,6.30
2023-01-27T16:05:23.273Z,6.25
2023-01-27T16:07:54.075Z,6.22
2023-01-27T16:10:24.719Z,6.20
2023-01-27T16:13:24.587Z,6.17
2023-01-27T16:16:19.034Z,6.12
2023-01-27T16:18:58.914Z,6.12
2023-01-27T16:21:49.494Z,6.08
2023-01-27T16:24:26.426Z,6.04
2023-01-27T16:26:59.629Z,6.04
2023-01-27T16:29:49.790Z,6.02
2023-01-27T16:32:19.157Z,6.02
2023-01-27T16:34:59.214Z,6.00
2023-01-27T16:37:33.232Z,5.99
2023-01-27T16:40:06.211Z,5.96
2023-01-27T16:42:43.491Z,5.96
2023-01-27T16:45:21.550Z,5.93
2023-01-27T16:48:00.174Z,5.92
2023-01-27T16:50:38.950Z,5.91
2023-01-27T16:53:12.043Z,5.90
2023-01-27T16:55:39.568Z,5.90
2023-01-27T16:58:18.541Z,5.87
2023-01-27T17:00:46.539Z,5.87
2023-01-27T17:03:17.728Z,5.88
2023-01-27T17:05:52.001Z,5.87
2023-01-27T17:08:35.287Z,5.85
2023-01-27T17:11:20.545Z,5.83
2023-01-27T17:13:50.097Z,5.80
2023-01-27T17:16:24.293Z,5.78
2023-01-27T17:18:53.207Z,5.77
2023-01-27T17:21:33.017Z,5.77
2023-01-27T17:24:07.487Z,5.76
2023-01-27T17:26:35.382Z,5.74
2023-01-27T17:29:01.981Z,5.73
2023-01-27T17:31:28.605Z,5.73
2023-01-27T17:34:01.003Z,5.74
2023-01-27T17:36:27.938Z,5.72
2023-01-27T17:38:57.099Z,5.72
2023-01-27T17:41:26.844Z,5.71
2023-01-27T17:43:55.787Z,5.71
2023-01-27T17:46:25.644Z,5.72
2023-01-27T17:48:59.071Z,5.73
2023-01-27T17:51:40.986Z,5.71
2023-01-27T17:54:21.228Z,5.69
2023-01-27T17:56:51.388Z,5.68
2023-01-27T17:59:23.093Z,5.67
2023-01-27T18:01:52.529Z,5.65
2023-01-27T18:04:20.002Z,5.63
2023-01-27T18:06:46.476Z,5.61
2023-01-27T18:09:18.464Z,5.58
2023-01-27T18:12:30.270Z,5.54
2023-01-27T18:14:56.772Z,5.52
2023-01-27T18:17:25.808Z,5.51
2023-01-27T18:19:56.632Z,5.49
2023-01-27T18:22:28.789Z,5.49
2023-01-27T18:25:00.614Z,5.47
2023-01-27T18:27:37.748Z,5.45
2023-01-27T18:30:16.344Z,5.43
2023-01-27T18:32:45.782Z,5.43
2023-01-27T18:35:42.216Z,5.39
2023-01-27T18:38:31.072Z,5.38
2023-01-27T18:41:11.975Z,5.36
2023-01-27T18:43:38.376Z,5.36
2023-01-27T18:46:10.372Z,5.38
2023-01-27T18:48:39.105Z,5.37
2023-01-27T18:51:15.318Z,5.36
2023-01-27T18:53:42.938Z,5.37
2023-01-27T18:56:09.738Z,5.37
2023-01-27T18:58:36.798Z,5.37
2023-01-27T19:01:05.582Z,5.37
2023-01-27T19:03:36.940Z,5.38
2023-01-27T19:06:03.407Z,5.39
2023-01-27T19:08:29.844Z,5.38
2023-01-27T19:10:56.283Z,5.37
2023-01-27T19:13:23.598Z,5.33
2023-01-27T19:15:54.967Z,5.33
2023-01-27T19:18:34.822Z,5.30
2023-01-27T19:21:02.285Z,5.25
2023-01-27T19:23:29.177Z,5.27
2023-01-27T19:26:02.545Z,5.27
2023-01-27T19:28:31.697Z,5.25
2023-01-27T19:30:59.116Z,5.25
2023-01-27T19:33:27.166Z,5.24
2023-01-27T19:36:00.009Z,5.22
2023-01-27T19:38:28.489Z,5.21
2023-01-27T19:40:55.484Z,5.20
2023-01-27T19:43:22.252Z,5.19
2023-01-27T19:45:50.089Z,5.20
2023-01-27T19:48:19.015Z,5.18
2023-01-27T19:50:45.975Z,5.17
2023-01-27T19:53:16.866Z,5.17
2023-01-27T19:55:43.418Z,5.16
2023-01-27T19:58:30.109Z,5.18
2023-01-27T20:00:56.576Z,5.18
2023-01-27T20:03:24.439Z,5.16
2023-01-27T20:05:50.836Z,5.15
2023-01-27T20:08:19.528Z,5.14
2023-01-27T20:10:46.817Z,5.13
2023-01-27T20:13:15.528Z,5.10
2023-01-27T20:15:42.578Z,5.09
2023-01-27T20:18:13.185Z,5.08
2023-01-27T20:20:39.655Z,5.06
2023-01-27T20:23:06.205Z,5.06
2023-01-27T20:25:32.942Z,5.05
2023-01-27T20:28:00.867Z,5.05
2023-01-27T20:30:30.024Z,5.03
2023-01-27T20:32:56.660Z,5.01
2023-01-27T20:35:23.536Z,5.00
2023-01-27T20:37:51.573Z,4.99
2023-01-27T20:40:26.315Z,4.99
2023-01-27T20:42:52.928Z,4.99
2023-01-27T20:45:19.720Z,4.97
2023-01-27T20:47:51.122Z,4.98
2023-01-27T20:50:17.890Z,4.99
2023-01-27T20:52:44.773Z,4.96
2023-01-27T20:55:13.454Z,4.94
2023-01-27T20:57:40.192Z,4.94
2023-01-27T21:00:07.556Z,4.93
2023-01-27T21:02:34.062Z,4.91
2023-01-27T21:05:00.554Z,4.89
2023-01-27T21:07:26.986Z,4.91
2023-01-27T21:09:53.545Z,4.89
2023-01-27T21:12:21.231Z,4.90
2023-01-27T21:14:47.638Z,4.91
2023-01-27T21:17:14.553Z,4.90
2023-01-27T21:19:41.143Z,4.86
2023-01-27T21:22:07.515Z,4.85
2023-01-27T21:24:34.135Z,4.84
2023-01-27T21:27:00.598Z,4.84
2023-01-27T21:29:27.065Z,4.83
2023-01-27T21:31:53.464Z,4.83
2023-01-27T21:34:20.072Z,4.85
2023-01-27T21:36:46.512Z,4.85
2023-01-27T21:39:12.943Z,4.89
2023-01-27T21:41:54.556Z,4.88
2023-01-27T21:44:42.317Z,4.89
2023-01-27T21:47:11.125Z,4.88
2023-01-27T21:49:58.738Z,4.90
2023-01-27T21:52:30.881Z,4.89
2023-01-27T21:54:57.308Z,4.88
2023-01-27T21:57:23.727Z,4.86
2023-01-27T21:59:50.155Z,4.83
2023-01-27T22:02:17.022Z,4.82
2023-01-27T22:04:44.277Z,4.79
2023-01-27T22:07:16.289Z,4.78
2023-01-27T22:09:42.987Z,4.79
2023-01-27T22:12:12.067Z,4.76
2023-01-27T22:14:38.497Z,4.75
2023-01-27T22:17:05.250Z,4.73
2023-01-27T22:19:31.657Z,4.72
2023-01-27T22:21:58.095Z,4.72
2023-01-27T22:24:24.579Z,4.73
2023-01-27T22:26:51.324Z,4.73
2023-01-27T22:29:17.828Z,4.72
2023-01-27T22:31:44.353Z,4.70
2023-01-27T22:34:10.917Z,4.72
2023-01-27T22:36:37.423Z,4.73
2023-01-27T22:39:04.674Z,4.72
2023-01-27T22:41:31.460Z,4.72
2023-01-27T22:43:57.951Z,4.71
2023-01-27T22:46:24.401Z,4.72
2023-01-27T22:48:50.937Z,4.73
2023-01-27T22:51:17.554Z,4.71
2023-01-27T22:53:44.006Z,4.71
2023-01-27T22:56:10.444Z,4.69
2023-01-27T22:58:36.865Z,4.66
2023-01-27T23:01:07.069Z,4.65
2023-01-27T23:03:33.785Z,4.64
2023-01-27T23:06:05.020Z,4.62
2023-01-27T23:08:32.739Z,4.60
2023-01-27T23:11:01.494Z,4.59
2023-01-27T23:13:29.068Z,4.59
2023-01-27T23:15:55.476Z,4.59
2023-01-27T23:18:22.474Z,4.61
2023-01-27T23:20:49.395Z,4.58
2023-01-27T23:23:17.014Z,4.56
2023-01-27T23:25:45.278Z,4.58
2023-01-27T23:28:13.343Z,4.54
2023-01-27T23:30:47.080Z,4.53
2023-01-27T23:33:14.841Z,4.49
2023-01-27T23:35:41.530Z,4.52
2023-01-27T23:38:19.307Z,4.51
2023-01-27T23:40:54.356Z,4.49
2023-01-27T23:43:22.404Z,4.48
2023-01-27T23:45:52.922Z,4.48
2023-01-27T23:48:20.987Z,4.49
2023-01-27T23:50:48.280Z,4.47
2023-01-27T23:53:15.664Z,4.51
2023-01-27T23:55:43.000Z,4.52
2023-01-27T23:58:09.848Z,4.50
